RYR34PP EIDW-EKCH
Flight info
| Callsign | RYR34PP |
|---|---|
| Flight time | 1h 46m |
| Altitude | 37000 |
| Route | ROTEV8E ROTEV DCT GOTNA DCT BLACA DCT SURAT DCT PETIL DCT TESPI |
| Aircraft | B738/M-SDE2E3FGHIRWXY/LB1 |
Departure
| Time | 2026-05-04 16:12 |
|---|---|
| Airport | Dublin Airport (EIDW) |
Arrival
| Time | 2026-05-04 17:58 |
|---|---|
| Airport | Copenhagen Kastrup Airport (EKCH) |
| Time | Latitude | Longitude | Altitude | Speed | Heading |
|---|---|---|---|---|---|
| 2026-05-04 15:08 | 53.43011 | -6.25009 | 210 ft | 0 kts | 5° |
| 2026-05-04 15:57 | 53.42999 | -6.25010 | 217 ft | 4 kts | 357° |
| 2026-05-04 15:57 | 53.42973 | -6.25001 | 210 ft | 4 kts | 328° |
| 2026-05-04 15:58 | 53.42955 | -6.24972 | 221 ft | 4 kts | 294° |
| 2026-05-04 15:58 | 53.42950 | -6.24942 | 211 ft | 0 kts | 275° |
| 2026-05-04 16:04 | 53.42954 | -6.25031 | 216 ft | 14 kts | 275° |
| 2026-05-04 16:04 | 53.42962 | -6.25216 | 210 ft | 14 kts | 264° |
| 2026-05-04 16:05 | 53.42920 | -6.25362 | 216 ft | 14 kts | 227° |
| 2026-05-04 16:05 | 53.42854 | -6.25474 | 211 ft | 13 kts | 225° |
| 2026-05-04 16:05 | 53.42705 | -6.25725 | 210 ft | 10 kts | 221° |
| 2026-05-04 16:06 | 53.42640 | -6.25731 | 210 ft | 10 kts | 158° |
| 2026-05-04 16:06 | 53.42486 | -6.25779 | 210 ft | 15 kts | 225° |
| 2026-05-04 16:07 | 53.42386 | -6.25949 | 210 ft | 25 kts | 226° |
| 2026-05-04 16:07 | 53.42291 | -6.26747 | 210 ft | 23 kts | 275° |
| 2026-05-04 16:08 | 53.42305 | -6.27008 | 212 ft | 22 kts | 275° |
| 2026-05-04 16:08 | 53.42346 | -6.27748 | 216 ft | 20 kts | 275° |
| 2026-05-04 16:09 | 53.42371 | -6.28198 | 210 ft | 17 kts | 275° |
| 2026-05-04 16:09 | 53.42308 | -6.28322 | 210 ft | 10 kts | 172° |
| 2026-05-04 16:10 | 53.42204 | -6.28256 | 215 ft | 4 kts | 124° |
| 2026-05-04 16:11 | 53.42143 | -6.27207 | 209 ft | 113 kts | 95° |
| 2026-05-04 16:11 | 53.42050 | -6.25524 | 295 ft | 169 kts | 96° |
| 2026-05-04 16:12 | 53.41685 | -6.19288 | 2783 ft | 199 kts | 93° |
| 2026-05-04 16:12 | 53.41261 | -6.11016 | 4240 ft | 276 kts | 93° |
| 2026-05-04 16:13 | 53.40910 | -6.04672 | 6500 ft | 278 kts | 92° |
| 2026-05-04 16:13 | 53.42559 | -5.99081 | 8476 ft | 280 kts | 34° |
| 2026-05-04 16:14 | 53.46322 | -5.97817 | 10350 ft | 285 kts | 355° |
| 2026-05-04 16:14 | 53.50592 | -5.98491 | 11151 ft | 331 kts | 354° |
| 2026-05-04 16:15 | 53.57564 | -6.00313 | 13728 ft | 347 kts | 348° |
| 2026-05-04 16:16 | 53.62336 | -6.01963 | 15401 ft | 352 kts | 348° |
| 2026-05-04 16:16 | 53.69694 | -6.04374 | 17738 ft | 366 kts | 349° |
| 2026-05-04 16:17 | 53.74766 | -6.05697 | 19176 ft | 373 kts | 357° |
| 2026-05-04 16:18 | 53.82624 | -6.05849 | 21276 ft | 381 kts | 0° |
| 2026-05-04 16:18 | 53.85291 | -6.05901 | 21912 ft | 385 kts | 0° |
| 2026-05-04 16:19 | 53.93462 | -6.06211 | 23755 ft | 396 kts | 360° |
| 2026-05-04 16:19 | 53.99008 | -6.06454 | 24842 ft | 401 kts | 360° |
| 2026-05-04 16:20 | 54.07076 | -6.03435 | 26353 ft | 406 kts | 26° |
| 2026-05-04 16:20 | 54.12177 | -5.99153 | 27194 ft | 414 kts | 25° |
| 2026-05-04 16:21 | 54.18790 | -5.89852 | 28687 ft | 425 kts | 59° |
| 2026-05-04 16:22 | 54.21088 | -5.80457 | 29539 ft | 433 kts | 67° |
| 2026-05-04 16:22 | 54.24330 | -5.65864 | 30564 ft | 442 kts | 66° |
| 2026-05-04 16:23 | 54.27670 | -5.51067 | 31668 ft | 445 kts | 67° |
| 2026-05-04 16:24 | 54.32109 | -5.31468 | 33459 ft | 440 kts | 68° |
| 2026-05-04 16:25 | 54.34294 | -5.21755 | 34398 ft | 435 kts | 68° |
| 2026-05-04 16:26 | 54.38639 | -5.02314 | 35624 ft | 436 kts | 68° |
| 2026-05-04 16:26 | 54.41889 | -4.87648 | 36344 ft | 441 kts | 68° |
| 2026-05-04 16:27 | 54.44065 | -4.77769 | 36904 ft | 442 kts | 68° |
| 2026-05-04 16:28 | 54.47330 | -4.62861 | 37062 ft | 444 kts | 68° |
| 2026-05-04 16:29 | 54.54767 | -4.28479 | 37066 ft | 436 kts | 68° |
| 2026-05-04 16:31 | 54.60014 | -4.03884 | 37056 ft | 439 kts | 69° |
| 2026-05-04 16:32 | 54.66290 | -3.74036 | 37048 ft | 443 kts | 69° |
| 2026-05-04 16:33 | 54.70483 | -3.53882 | 37035 ft | 445 kts | 69° |
| 2026-05-04 16:34 | 54.73604 | -3.38724 | 37042 ft | 447 kts | 69° |
| 2026-05-04 16:35 | 54.79831 | -3.08123 | 37032 ft | 450 kts | 69° |
| 2026-05-04 16:36 | 54.82924 | -2.92757 | 37028 ft | 450 kts | 69° |
| 2026-05-04 16:37 | 54.85985 | -2.77429 | 37021 ft | 450 kts | 69° |
| 2026-05-04 16:38 | 54.90050 | -2.56914 | 37023 ft | 448 kts | 69° |
| 2026-05-04 16:39 | 54.95064 | -2.31261 | 37015 ft | 448 kts | 69° |
| 2026-05-04 16:40 | 54.99036 | -2.10694 | 37020 ft | 448 kts | 70° |
| 2026-05-04 16:41 | 55.03966 | -1.84866 | 36995 ft | 451 kts | 70° |
| 2026-05-04 16:43 | 55.08869 | -1.58831 | 37004 ft | 454 kts | 71° |
| 2026-05-04 16:43 | 55.11802 | -1.43078 | 36992 ft | 454 kts | 71° |
| 2026-05-04 16:45 | 55.17585 | -1.11626 | 36996 ft | 452 kts | 71° |
| 2026-05-04 16:46 | 55.22317 | -0.85487 | 37008 ft | 450 kts | 71° |
| 2026-05-04 16:47 | 55.26054 | -0.64575 | 37012 ft | 450 kts | 71° |
| 2026-05-04 16:48 | 55.29770 | -0.43549 | 37020 ft | 453 kts | 72° |
| 2026-05-04 16:49 | 55.33479 | -0.22310 | 37017 ft | 457 kts | 72° |
| 2026-05-04 16:50 | 55.36864 | -0.02704 | 37013 ft | 459 kts | 72° |
| 2026-05-04 16:51 | 55.39622 | 0.13436 | 37017 ft | 460 kts | 72° |
| 2026-05-04 16:52 | 55.43269 | 0.35000 | 37021 ft | 459 kts | 72° |
| 2026-05-04 16:53 | 55.45951 | 0.51036 | 37014 ft | 449 kts | 72° |
| 2026-05-04 16:54 | 55.49429 | 0.72047 | 37023 ft | 447 kts | 72° |
| 2026-05-04 16:55 | 55.54615 | 1.03849 | 37029 ft | 451 kts | 73° |
| 2026-05-04 16:56 | 55.58892 | 1.30537 | 37029 ft | 455 kts | 73° |
| 2026-05-04 16:57 | 55.61454 | 1.46735 | 37032 ft | 457 kts | 73° |
| 2026-05-04 16:58 | 55.64848 | 1.68428 | 37035 ft | 458 kts | 73° |
| 2026-05-04 17:00 | 55.69860 | 2.00994 | 37020 ft | 456 kts | 73° |
| 2026-05-04 17:01 | 55.73952 | 2.28068 | 37028 ft | 454 kts | 74° |
| 2026-05-04 17:02 | 55.77177 | 2.49729 | 37029 ft | 454 kts | 74° |
| 2026-05-04 17:03 | 55.79581 | 2.66065 | 37031 ft | 457 kts | 74° |
| 2026-05-04 17:03 | 55.81975 | 2.82512 | 37038 ft | 459 kts | 74° |
| 2026-05-04 17:04 | 55.85151 | 3.04593 | 37022 ft | 462 kts | 75° |
| 2026-05-04 17:05 | 55.88303 | 3.26815 | 37026 ft | 463 kts | 75° |
| 2026-05-04 17:06 | 55.90639 | 3.43489 | 37024 ft | 462 kts | 75° |
| 2026-05-04 17:07 | 55.91769 | 3.54737 | 37024 ft | 462 kts | 87° |
| 2026-05-04 17:07 | 55.91857 | 3.58523 | 37036 ft | 461 kts | 88° |
| 2026-05-04 17:07 | 55.92048 | 3.71788 | 37016 ft | 454 kts | 88° |
| 2026-05-04 17:08 | 55.92316 | 3.88612 | 37029 ft | 453 kts | 88° |
| 2026-05-04 17:09 | 55.92517 | 3.99834 | 37024 ft | 453 kts | 88° |
| 2026-05-04 17:09 | 55.92712 | 4.11060 | 37024 ft | 453 kts | 88° |
| 2026-05-04 17:10 | 55.93154 | 4.39219 | 37023 ft | 455 kts | 88° |
| 2026-05-04 17:11 | 55.93313 | 4.50505 | 37022 ft | 455 kts | 88° |
| 2026-05-04 17:12 | 55.93530 | 4.67378 | 37018 ft | 456 kts | 89° |
| 2026-05-04 17:13 | 55.93846 | 4.95669 | 37019 ft | 456 kts | 89° |
| 2026-05-04 17:14 | 55.94133 | 5.18299 | 37019 ft | 456 kts | 88° |
| 2026-05-04 17:15 | 55.94364 | 5.35261 | 37019 ft | 456 kts | 88° |
| 2026-05-04 17:16 | 55.94621 | 5.57861 | 37018 ft | 455 kts | 89° |
| 2026-05-04 17:17 | 55.94835 | 5.80436 | 37021 ft | 455 kts | 89° |
| 2026-05-04 17:18 | 55.95007 | 6.03008 | 37015 ft | 455 kts | 89° |
| 2026-05-04 17:19 | 55.95139 | 6.25587 | 37010 ft | 455 kts | 90° |
| 2026-05-04 17:20 | 55.95229 | 6.48180 | 37010 ft | 455 kts | 90° |
| 2026-05-04 17:20 | 55.95269 | 6.65135 | 37003 ft | 456 kts | 90° |
| 2026-05-04 17:21 | 55.95287 | 6.87753 | 37004 ft | 456 kts | 90° |
| 2026-05-04 17:22 | 55.95280 | 6.99075 | 37003 ft | 456 kts | 90° |
| 2026-05-04 17:23 | 55.95239 | 7.20803 | 37002 ft | 457 kts | 91° |
| 2026-05-04 17:24 | 55.95179 | 7.37798 | 37001 ft | 457 kts | 91° |
| 2026-05-04 17:25 | 55.95064 | 7.60468 | 37009 ft | 457 kts | 91° |
| 2026-05-04 17:26 | 55.94906 | 7.83146 | 37007 ft | 457 kts | 91° |
| 2026-05-04 17:27 | 55.94654 | 8.11247 | 37000 ft | 452 kts | 91° |
| 2026-05-04 17:28 | 55.94407 | 8.33625 | 36996 ft | 454 kts | 92° |
| 2026-05-04 17:29 | 55.93793 | 8.67436 | 36996 ft | 455 kts | 96° |
| 2026-05-04 17:30 | 55.92904 | 8.84246 | 36316 ft | 450 kts | 96° |
| 2026-05-04 17:31 | 55.92319 | 8.95360 | 35828 ft | 450 kts | 96° |
| 2026-05-04 17:31 | 55.91465 | 9.12108 | 34186 ft | 452 kts | 95° |
| 2026-05-04 17:32 | 55.90886 | 9.23388 | 32893 ft | 460 kts | 95° |
| 2026-05-04 17:33 | 55.89988 | 9.40470 | 31164 ft | 457 kts | 96° |
| 2026-05-04 17:33 | 55.89687 | 9.46072 | 30692 ft | 452 kts | 96° |
| 2026-05-04 17:34 | 55.88791 | 9.62505 | 29309 ft | 437 kts | 96° |
| 2026-05-04 17:34 | 55.88490 | 9.67937 | 28851 ft | 444 kts | 96° |
| 2026-05-04 17:35 | 55.87574 | 9.84185 | 27446 ft | 433 kts | 96° |
| 2026-05-04 17:35 | 55.86969 | 9.94717 | 26555 ft | 426 kts | 96° |
| 2026-05-04 17:35 | 55.86661 | 10.00004 | 26119 ft | 433 kts | 96° |
| 2026-05-04 17:36 | 55.86348 | 10.05344 | 25663 ft | 431 kts | 97° |
| 2026-05-04 17:36 | 55.86037 | 10.10628 | 25214 ft | 427 kts | 97° |
| 2026-05-04 17:36 | 55.85726 | 10.15859 | 24778 ft | 423 kts | 97° |
| 2026-05-04 17:36 | 55.85415 | 10.21050 | 24338 ft | 421 kts | 97° |
| 2026-05-04 17:37 | 55.85105 | 10.26207 | 24012 ft | 415 kts | 97° |
| 2026-05-04 17:37 | 55.84797 | 10.31274 | 23968 ft | 409 kts | 97° |
| 2026-05-04 17:37 | 55.84494 | 10.36239 | 23946 ft | 397 kts | 97° |
| 2026-05-04 17:37 | 55.84199 | 10.41039 | 23937 ft | 384 kts | 97° |
| 2026-05-04 17:38 | 55.83934 | 10.45678 | 23926 ft | 371 kts | 94° |
| 2026-05-04 17:38 | 55.83886 | 10.50215 | 23686 ft | 367 kts | 90° |
| 2026-05-04 17:38 | 55.83935 | 10.54705 | 23280 ft | 368 kts | 88° |
| 2026-05-04 17:38 | 55.84013 | 10.59228 | 22991 ft | 364 kts | 88° |
| 2026-05-04 17:39 | 55.84154 | 10.68167 | 22342 ft | 360 kts | 89° |
| 2026-05-04 17:39 | 55.84209 | 10.72607 | 21950 ft | 359 kts | 89° |
| 2026-05-04 17:39 | 55.84255 | 10.77051 | 21561 ft | 357 kts | 89° |
| 2026-05-04 17:40 | 55.84295 | 10.81440 | 21095 ft | 355 kts | 89° |
| 2026-05-04 17:40 | 55.84330 | 10.85838 | 20527 ft | 355 kts | 89° |
| 2026-05-04 17:40 | 55.84362 | 10.90231 | 19980 ft | 355 kts | 89° |
| 2026-05-04 17:40 | 55.84392 | 10.94617 | 19443 ft | 355 kts | 89° |
| 2026-05-04 17:41 | 55.84420 | 10.99003 | 18914 ft | 353 kts | 89° |
| 2026-05-04 17:41 | 55.84445 | 11.03357 | 18384 ft | 351 kts | 89° |
| 2026-05-04 17:41 | 55.84469 | 11.07679 | 17834 ft | 348 kts | 90° |
| 2026-05-04 17:41 | 55.84491 | 11.11959 | 17303 ft | 344 kts | 90° |
| 2026-05-04 17:42 | 55.84511 | 11.16190 | 16772 ft | 340 kts | 90° |
| 2026-05-04 17:42 | 55.84530 | 11.20376 | 16259 ft | 337 kts | 90° |
| 2026-05-04 17:42 | 55.84547 | 11.24527 | 15746 ft | 334 kts | 90° |
| 2026-05-04 17:42 | 55.84563 | 11.28640 | 15246 ft | 332 kts | 90° |
| 2026-05-04 17:43 | 55.84577 | 11.32771 | 14888 ft | 339 kts | 90° |
| 2026-05-04 17:43 | 55.84590 | 11.37063 | 14660 ft | 352 kts | 90° |
| 2026-05-04 17:43 | 55.84602 | 11.41451 | 14424 ft | 356 kts | 90° |
| 2026-05-04 17:43 | 55.84613 | 11.45852 | 14181 ft | 355 kts | 90° |
| 2026-05-04 17:44 | 55.84622 | 11.50233 | 13939 ft | 353 kts | 90° |
| 2026-05-04 17:44 | 55.84629 | 11.54599 | 13576 ft | 355 kts | 90° |
| 2026-05-04 17:44 | 55.84635 | 11.58996 | 13147 ft | 356 kts | 90° |
| 2026-05-04 17:44 | 55.84639 | 11.63392 | 12728 ft | 354 kts | 90° |
| 2026-05-04 17:45 | 55.84642 | 11.67746 | 12300 ft | 348 kts | 90° |
| 2026-05-04 17:45 | 55.84643 | 11.72022 | 11797 ft | 344 kts | 90° |
| 2026-05-04 17:45 | 55.84643 | 11.76258 | 11293 ft | 341 kts | 90° |
| 2026-05-04 17:45 | 55.84641 | 11.80454 | 10795 ft | 337 kts | 90° |
| 2026-05-04 17:46 | 55.84638 | 11.84602 | 10301 ft | 334 kts | 90° |
| 2026-05-04 17:46 | 55.84634 | 11.88674 | 10121 ft | 321 kts | 90° |
| 2026-05-04 17:46 | 55.84628 | 11.92562 | 9974 ft | 310 kts | 90° |
| 2026-05-04 17:46 | 55.84615 | 11.96384 | 9720 ft | 308 kts | 93° |
| 2026-05-04 17:47 | 55.84179 | 12.00098 | 9433 ft | 308 kts | 116° |
| 2026-05-04 17:47 | 55.82945 | 12.03159 | 9186 ft | 305 kts | 142° |
| 2026-05-04 17:47 | 55.81269 | 12.05451 | 8949 ft | 307 kts | 140° |
| 2026-05-04 17:47 | 55.80049 | 12.08567 | 8668 ft | 311 kts | 113° |
| 2026-05-04 17:48 | 55.79629 | 12.12292 | 8423 ft | 307 kts | 93° |
| 2026-05-04 17:48 | 55.79573 | 12.16002 | 8175 ft | 303 kts | 90° |
| 2026-05-04 17:48 | 55.79558 | 12.19783 | 7913 ft | 301 kts | 90° |
| 2026-05-04 17:48 | 55.79550 | 12.23448 | 7651 ft | 300 kts | 90° |
| 2026-05-04 17:49 | 55.79546 | 12.27163 | 7413 ft | 299 kts | 90° |
| 2026-05-04 17:49 | 55.79542 | 12.30889 | 7161 ft | 298 kts | 90° |
| 2026-05-04 17:49 | 55.79538 | 12.34505 | 6921 ft | 297 kts | 90° |
| 2026-05-04 17:49 | 55.79537 | 12.38167 | 6673 ft | 296 kts | 90° |
| 2026-05-04 17:50 | 55.79532 | 12.41817 | 6420 ft | 295 kts | 90° |
| 2026-05-04 17:50 | 55.79525 | 12.45457 | 6169 ft | 293 kts | 90° |
| 2026-05-04 17:50 | 55.79513 | 12.49125 | 5905 ft | 292 kts | 90° |
| 2026-05-04 17:50 | 55.79498 | 12.52680 | 5655 ft | 291 kts | 90° |
| 2026-05-04 17:51 | 55.79478 | 12.56324 | 5400 ft | 291 kts | 90° |
| 2026-05-04 17:51 | 55.79457 | 12.59862 | 5145 ft | 289 kts | 90° |
| 2026-05-04 17:51 | 55.79435 | 12.63406 | 4895 ft | 285 kts | 90° |
| 2026-05-04 17:51 | 55.79408 | 12.66907 | 4631 ft | 282 kts | 90° |
| 2026-05-04 17:52 | 55.79379 | 12.70347 | 4354 ft | 275 kts | 90° |
| 2026-05-04 17:52 | 55.79348 | 12.73698 | 4094 ft | 268 kts | 90° |
| 2026-05-04 17:52 | 55.79344 | 12.76951 | 4005 ft | 258 kts | 82° |
| 2026-05-04 17:52 | 55.79608 | 12.80021 | 4000 ft | 244 kts | 79° |
| 2026-05-04 17:53 | 55.79847 | 12.82903 | 4009 ft | 227 kts | 80° |
| 2026-05-04 17:53 | 55.79910 | 12.85584 | 3979 ft | 211 kts | 102° |
| 2026-05-04 17:53 | 55.79233 | 12.87782 | 3784 ft | 202 kts | 141° |
| 2026-05-04 17:53 | 55.78002 | 12.88780 | 3480 ft | 195 kts | 181° |
| 2026-05-04 17:54 | 55.76776 | 12.88079 | 3195 ft | 184 kts | 219° |
| 2026-05-04 17:54 | 55.75713 | 12.86790 | 3047 ft | 186 kts | 219° |
| 2026-05-04 17:54 | 55.74670 | 12.85429 | 3009 ft | 186 kts | 222° |
| 2026-05-04 17:54 | 55.73678 | 12.83972 | 2923 ft | 183 kts | 225° |
| 2026-05-04 17:55 | 55.72724 | 12.82514 | 2702 ft | 179 kts | 225° |
| 2026-05-04 17:55 | 55.71801 | 12.81090 | 2473 ft | 173 kts | 225° |
| 2026-05-04 17:55 | 55.70908 | 12.79708 | 2240 ft | 169 kts | 225° |
| 2026-05-04 17:55 | 55.70035 | 12.78358 | 2005 ft | 165 kts | 225° |
| 2026-05-04 17:56 | 55.69184 | 12.77042 | 1792 ft | 160 kts | 225° |
| 2026-05-04 17:56 | 55.68357 | 12.75765 | 1578 ft | 156 kts | 226° |
| 2026-05-04 17:56 | 55.67537 | 12.74493 | 1366 ft | 158 kts | 225° |
| 2026-05-04 17:56 | 55.66738 | 12.73260 | 1157 ft | 148 kts | 226° |
| 2026-05-04 17:57 | 55.65974 | 12.72077 | 948 ft | 145 kts | 226° |
| 2026-05-04 17:57 | 55.65227 | 12.70920 | 756 ft | 142 kts | 226° |
| 2026-05-04 17:57 | 55.64466 | 12.69741 | 571 ft | 148 kts | 224° |
| 2026-05-04 17:57 | 55.63689 | 12.68541 | 373 ft | 147 kts | 226° |
| 2026-05-04 17:58 | 55.63181 | 12.67751 | 247 ft | 146 kts | 225° |
| 2026-05-04 17:58 | 55.62414 | 12.66560 | 47 ft | 147 kts | 225° |
| 2026-05-04 17:58 | 55.61706 | 12.65462 | 22 ft | 99 kts | 221° |
| 2026-05-04 17:58 | 55.61418 | 12.65013 | 25 ft | 38 kts | 221° |
| 2026-05-04 17:59 | 55.61270 | 12.64672 | 26 ft | 31 kts | 245° |
| 2026-05-04 17:59 | 55.61215 | 12.64394 | 24 ft | 22 kts | 251° |
| 2026-05-04 17:59 | 55.61235 | 12.64108 | 23 ft | 12 kts | 341° |
| 2026-05-04 18:00 | 55.61319 | 12.64154 | 23 ft | 15 kts | 33° |
| 2026-05-04 18:00 | 55.61429 | 12.64281 | 23 ft | 21 kts | 33° |
| 2026-05-04 18:00 | 55.61552 | 12.64422 | 23 ft | 21 kts | 33° |
| 2026-05-04 18:00 | 55.61674 | 12.64562 | 23 ft | 21 kts | 33° |
| 2026-05-04 18:01 | 55.61792 | 12.64698 | 25 ft | 20 kts | 33° |
| 2026-05-04 18:01 | 55.61906 | 12.64830 | 25 ft | 19 kts | 33° |
| 2026-05-04 18:01 | 55.62009 | 12.64947 | 24 ft | 16 kts | 32° |
| 2026-05-04 18:02 | 55.62149 | 12.65108 | 26 ft | 2 kts | 30° |
| 2026-05-04 18:02 | 55.62151 | 12.65110 | 25 ft | 0 kts | 30° |
| 2026-05-04 18:02 | 55.62155 | 12.65114 | 25 ft | 1 kts | 32° |
| 2026-05-04 18:02 | 55.62160 | 12.65121 | 23 ft | 0 kts | 35° |
| 2026-05-04 18:06 | 55.62169 | 12.65132 | 23 ft | 6 kts | 35° |
| 2026-05-04 18:06 | 55.62233 | 12.65194 | 23 ft | 13 kts | 14° |
| 2026-05-04 18:07 | 55.62320 | 12.65203 | 23 ft | 11 kts | 6° |
| 2026-05-04 18:07 | 55.62394 | 12.65202 | 26 ft | 9 kts | 359° |
| 2026-05-04 18:07 | 55.62435 | 12.65225 | 25 ft | 6 kts | 50° |
| 2026-05-04 18:07 | 55.62438 | 12.65243 | 24 ft | 0 kts | 76° |
| 2026-05-04 18:08 | 55.62440 | 12.65272 | 23 ft | 7 kts | 80° |
| 2026-05-04 18:08 | 55.62485 | 12.65324 | 23 ft | 9 kts | 1° |
| 2026-05-04 18:09 | 55.62511 | 12.65324 | 23 ft | 0 kts | 359° |
| 2026-05-04 18:11 | 55.62529 | 12.65323 | 25 ft | 9 kts | 359° |
| 2026-05-04 18:12 | 55.62617 | 12.65320 | 24 ft | 10 kts | 356° |
| 2026-05-04 18:12 | 55.62654 | 12.65252 | 24 ft | 8 kts | 268° |
| 2026-05-04 18:12 | 55.62620 | 12.65183 | 24 ft | 8 kts | 196° |
| 2026-05-04 18:12 | 55.62557 | 12.65182 | 26 ft | 11 kts | 178° |
| 2026-05-04 18:13 | 55.62478 | 12.65186 | 24 ft | 9 kts | 176° |
| 2026-05-04 18:13 | 55.62441 | 12.65264 | 25 ft | 9 kts | 93° |
| 2026-05-04 18:13 | 55.62475 | 12.65439 | 27 ft | 8 kts | 25° |
| 2026-05-04 18:14 | 55.62504 | 12.65462 | 23 ft | 1 kts | 24° |
| 2026-05-04 18:14 | 55.62510 | 12.65467 | 23 ft | 1 kts | 23° |